createdAt,value
2023-02-11T00:00:41.695Z,102351.72
2023-02-11T00:03:11.126Z,102351.63
2023-02-11T00:05:39.197Z,102352.50
2023-02-11T00:08:07.088Z,102350.84
2023-02-11T00:10:34.999Z,102350.81
2023-02-11T00:13:02.988Z,102359.47
2023-02-11T00:15:30.859Z,102365.50
2023-02-11T00:17:58.799Z,102370.44
2023-02-11T00:20:29.718Z,102383.56
2023-02-11T00:22:57.668Z,102381.75
2023-02-11T00:25:25.663Z,102381.03
2023-02-11T00:27:53.536Z,102379.06
2023-02-11T00:30:21.531Z,102371.38
2023-02-11T00:32:49.446Z,102352.41
2023-02-11T00:35:17.524Z,102348.09
2023-02-11T00:37:46.834Z,102342.00
2023-02-11T00:40:15.948Z,102344.50
2023-02-11T00:42:44.015Z,102350.78
2023-02-11T00:45:12.385Z,102348.00
2023-02-11T00:47:40.538Z,102341.97
2023-02-11T00:50:08.647Z,102345.56
2023-02-11T00:52:36.524Z,102355.47
2023-02-11T00:55:06.451Z,102363.38
2023-02-11T00:57:34.354Z,102359.19
2023-02-11T01:00:02.509Z,102354.97
2023-02-11T01:02:30.523Z,102355.72
2023-02-11T01:05:00.105Z,102347.84
2023-02-11T01:07:29.152Z,102338.41
2023-02-11T01:09:57.185Z,102322.72
2023-02-11T01:12:26.896Z,102323.59
2023-02-11T01:14:54.961Z,102301.16
2023-02-11T01:17:22.925Z,102293.44
2023-02-11T01:19:51.238Z,102291.03
2023-02-11T01:22:19.352Z,102281.34
2023-02-11T01:24:48.923Z,102272.53
2023-02-11T01:27:17.047Z,102265.66
2023-02-11T01:29:47.171Z,102276.84
2023-02-11T01:32:15.133Z,102278.72
2023-02-11T01:34:43.097Z,102273.38
2023-02-11T01:37:10.958Z,102266.59
2023-02-11T01:39:38.831Z,102266.47
2023-02-11T01:42:06.932Z,102270.75
2023-02-11T01:44:36.673Z,102267.94
2023-02-11T01:47:07.594Z,102268.13
2023-02-11T01:49:39.417Z,102266.25
2023-02-11T01:52:13.270Z,102267.09
2023-02-11T01:55:02.152Z,102278.22
2023-02-11T01:57:33.294Z,102264.25
2023-02-11T02:00:10.352Z,102261.59
2023-02-11T02:02:53.667Z,102253.06
2023-02-11T02:05:29.481Z,102254.63
2023-02-11T02:08:04.624Z,102258.13
2023-02-11T02:10:35.073Z,102244.88
2023-02-11T02:13:03.005Z,102238.69
2023-02-11T02:15:33.232Z,102256.03
2023-02-11T02:18:29.049Z,102243.06
2023-02-11T02:21:38.062Z,102239.53
2023-02-11T02:24:34.186Z,102240.38
2023-02-11T02:27:28.518Z,102245.44
2023-02-11T02:30:30.621Z,102241.56
2023-02-11T02:33:25.241Z,102231.13
2023-02-11T02:36:05.028Z,102221.56
2023-02-11T02:38:38.355Z,102225.97
2023-02-11T02:41:10.687Z,102214.50
2023-02-11T02:43:41.468Z,102220.38
2023-02-11T02:46:15.274Z,102212.72
2023-02-11T02:48:45.627Z,102217.78
2023-02-11T02:51:28.358Z,102204.06
2023-02-11T02:54:09.873Z,102202.31
2023-02-11T02:56:45.745Z,102200.06
2023-02-11T02:59:32.617Z,102195.53
2023-02-11T03:02:10.850Z,102188.84
2023-02-11T03:04:49.470Z,102195.47
2023-02-11T03:07:28.780Z,102194.69
2023-02-11T03:10:03.312Z,102199.97
2023-02-11T03:12:34.152Z,102181.56
2023-02-11T03:15:04.488Z,102184.84
2023-02-11T03:17:34.844Z,102183.31
2023-02-11T03:20:08.038Z,102194.66
2023-02-11T03:22:41.412Z,102184.25
2023-02-11T03:25:10.695Z,102175.28
2023-02-11T03:27:44.613Z,102183.09
2023-02-11T03:30:18.145Z,102184.81
2023-02-11T03:32:52.366Z,102180.50
2023-02-11T03:35:25.557Z,102185.31
2023-02-11T03:37:56.954Z,102188.69
2023-02-11T03:40:29.554Z,102185.31
2023-02-11T03:43:00.695Z,102194.06
2023-02-11T03:45:29.627Z,102184.59
2023-02-11T03:48:01.105Z,102188.69
2023-02-11T03:50:32.561Z,102192.25
2023-02-11T03:53:03.521Z,102193.31
2023-02-11T03:55:36.279Z,102184.56
2023-02-11T03:58:04.624Z,102174.22
2023-02-11T04:00:33.514Z,102181.06
2023-02-11T04:03:01.701Z,102162.19
2023-02-11T04:05:31.432Z,102175.84
2023-02-11T04:07:59.444Z,102180.09
2023-02-11T04:10:27.526Z,102184.22
2023-02-11T04:12:55.568Z,102190.69
2023-02-11T04:15:24.403Z,102186.94
2023-02-11T04:17:53.259Z,102180.84
2023-02-11T04:20:21.288Z,102177.03
2023-02-11T04:22:50.589Z,102180.63
2023-02-11T04:25:18.680Z,102173.63
2023-02-11T04:27:46.583Z,102182.16
2023-02-11T04:30:14.866Z,102169.31
2023-02-11T04:32:42.912Z,102178.00
2023-02-11T04:35:10.877Z,102181.31
2023-02-11T04:37:38.832Z,102176.19
2023-02-11T04:40:09.637Z,102167.25
2023-02-11T04:42:37.512Z,102159.59
2023-02-11T04:45:07.110Z,102152.50
2023-02-11T04:47:35.135Z,102150.72
2023-02-11T04:50:03.115Z,102166.72
2023-02-11T04:52:31.089Z,102153.56
2023-02-11T04:54:59.082Z,102167.44
2023-02-11T04:57:28.360Z,102152.63
2023-02-11T04:59:56.246Z,102132.88
2023-02-11T05:02:24.163Z,102133.59
2023-02-11T05:04:52.102Z,102133.66
2023-02-11T05:07:20.041Z,102131.09
2023-02-11T05:09:48.072Z,102137.22
2023-02-11T05:12:16.114Z,102123.34
2023-02-11T05:14:45.364Z,102116.31
2023-02-11T05:17:13.474Z,102112.88
2023-02-11T05:19:42.859Z,102107.13
2023-02-11T05:22:10.861Z,102105.28
2023-02-11T05:24:38.926Z,102088.28
2023-02-11T05:27:06.899Z,102093.97
2023-02-11T05:29:34.845Z,102085.38
2023-02-11T05:32:04.306Z,102084.50
2023-02-11T05:34:32.211Z,102081.72
2023-02-11T05:37:00.186Z,102089.38
2023-02-11T05:39:28.178Z,102084.16
2023-02-11T05:41:56.054Z,102081.84
2023-02-11T05:44:24.014Z,102085.81
2023-02-11T05:46:52.204Z,102083.47
2023-02-11T05:49:21.577Z,102081.66
2023-02-11T05:51:52.404Z,102076.44
2023-02-11T05:54:20.639Z,102084.84
2023-02-11T05:56:48.868Z,102081.38
2023-02-11T05:59:16.957Z,102082.31
2023-02-11T06:01:45.055Z,102092.56
2023-02-11T06:04:13.142Z,102085.63
2023-02-11T06:06:42.549Z,102092.66
2023-02-11T06:09:11.252Z,102092.63
2023-02-11T06:11:39.671Z,102093.63
2023-02-11T06:14:08.035Z,102096.75
2023-02-11T06:16:35.979Z,102096.69
2023-02-11T06:19:04.145Z,102095.69
2023-02-11T06:21:42.860Z,102086.19
2023-02-11T06:24:13.433Z,102096.41
2023-02-11T06:26:41.321Z,102096.63
2023-02-11T06:29:11.153Z,102097.09
2023-02-11T06:31:39.844Z,102092.19
2023-02-11T06:34:08.409Z,102086.88
2023-02-11T06:36:37.425Z,102085.78
2023-02-11T06:39:05.953Z,102077.22
2023-02-11T06:41:37.704Z,102073.66
2023-02-11T06:44:06.073Z,102075.38
2023-02-11T06:46:36.332Z,102072.75
2023-02-11T06:49:04.423Z,102077.31
2023-02-11T06:51:34.999Z,102067.78
2023-02-11T06:54:03.025Z,102072.50
2023-02-11T06:56:34.096Z,102088.03
2023-02-11T06:59:04.974Z,102084.44
2023-02-11T07:01:34.884Z,102081.97
2023-02-11T07:04:02.891Z,102089.91
2023-02-11T07:06:30.801Z,102086.44
2023-02-11T07:08:58.742Z,102080.91
2023-02-11T07:11:28.607Z,102080.91
2023-02-11T07:14:00.786Z,102067.09
2023-02-11T07:16:30.476Z,102070.78
2023-02-11T07:18:59.002Z,102071.59
2023-02-11T07:21:28.474Z,102067.91
2023-02-11T07:23:56.633Z,102069.06
2023-02-11T07:26:25.730Z,102066.59
2023-02-11T07:28:56.232Z,102065.38
2023-02-11T07:31:26.991Z,102073.44
2023-02-11T07:33:59.829Z,102053.50
2023-02-11T07:36:29.095Z,102058.56
2023-02-11T07:38:57.044Z,102049.97
2023-02-11T07:41:26.484Z,102051.69
2023-02-11T07:43:54.682Z,102064.41
2023-02-11T07:46:25.119Z,102056.81
2023-02-11T07:48:53.660Z,102054.38
2023-02-11T07:51:24.799Z,102061.13
2023-02-11T07:53:53.380Z,102071.34
2023-02-11T07:56:22.858Z,102060.78
2023-02-11T07:58:51.553Z,102061.50
2023-02-11T08:01:22.552Z,102060.66
2023-02-11T08:03:50.841Z,102055.44
2023-02-11T08:06:21.184Z,102062.19
2023-02-11T08:08:50.784Z,102063.69
2023-02-11T08:11:20.419Z,102075.09
2023-02-11T08:13:48.605Z,102091.53
2023-02-11T08:16:20.949Z,102084.28
2023-02-11T08:18:50.257Z,102092.88
2023-02-11T08:21:19.635Z,102104.91
2023-02-11T08:23:49.704Z,102099.56
2023-02-11T08:26:21.666Z,102099.22
2023-02-11T08:28:51.864Z,102102.91
2023-02-11T08:31:22.475Z,102095.06
2023-02-11T08:33:51.083Z,102085.44
2023-02-11T08:36:21.432Z,102086.28
2023-02-11T08:38:50.449Z,102106.78
2023-02-11T08:41:20.593Z,102109.41
2023-02-11T08:43:52.491Z,102111.25
2023-02-11T08:46:21.446Z,102112.88
2023-02-11T08:48:49.870Z,102105.06
2023-02-11T08:51:21.079Z,102098.09
2023-02-11T08:53:50.103Z,102085.91
2023-02-11T08:56:21.433Z,102077.25
2023-02-11T08:58:50.399Z,102068.72
2023-02-11T09:01:23.085Z,102070.75
2023-02-11T09:03:52.059Z,102083.09
2023-02-11T09:06:22.513Z,102081.38
2023-02-11T09:08:52.989Z,102061.22
2023-02-11T09:11:26.656Z,102069.03
2023-02-11T09:13:55.020Z,102081.44
2023-02-11T09:16:26.023Z,102090.06
2023-02-11T09:18:54.295Z,102088.16
2023-02-11T09:21:22.379Z,102087.31
2023-02-11T09:23:50.349Z,102083.75
2023-02-11T09:26:20.068Z,102085.31
2023-02-11T09:28:49.406Z,102107.78
2023-02-11T09:31:19.295Z,102098.22
2023-02-11T09:33:49.779Z,102092.03
2023-02-11T09:36:20.441Z,102107.81
2023-02-11T09:38:49.320Z,102103.44
2023-02-11T09:41:40.340Z,102125.03
2023-02-11T09:44:19.450Z,102124.06
2023-02-11T09:46:51.229Z,102116.25
2023-02-11T09:49:22.966Z,102122.53
2023-02-11T09:51:54.550Z,102122.38
2023-02-11T09:54:30.920Z,102124.91
2023-02-11T09:56:58.869Z,102123.25
2023-02-11T09:59:28.366Z,102143.94
2023-02-11T10:02:01.804Z,102142.06
2023-02-11T10:04:45.711Z,102128.19
2023-02-11T10:07:25.184Z,102131.56
2023-02-11T10:10:08.589Z,102134.03
2023-02-11T10:12:51.701Z,102139.22
2023-02-11T10:15:29.599Z,102140.88
2023-02-11T10:18:08.626Z,102144.31
2023-02-11T10:20:39.565Z,102141.63
2023-02-11T10:23:16.264Z,102140.97
2023-02-11T10:25:47.013Z,102146.00
2023-02-11T10:28:16.710Z,102139.56
2023-02-11T10:30:54.274Z,102164.47
2023-02-11T10:33:28.136Z,102158.22
2023-02-11T10:36:02.944Z,102147.25
2023-02-11T10:38:30.920Z,102146.41
2023-02-11T10:40:58.859Z,102136.84
2023-02-11T10:43:29.917Z,102140.44
2023-02-11T10:46:02.281Z,102131.53
2023-02-11T10:48:43.899Z,102117.66
2023-02-11T10:51:20.343Z,102115.81
2023-02-11T10:53:49.893Z,102110.50
2023-02-11T10:56:25.122Z,102133.44
2023-02-11T10:59:01.510Z,102132.53
2023-02-11T11:01:42.762Z,102129.16
2023-02-11T11:04:36.450Z,102111.78
2023-02-11T11:07:13.524Z,102101.31
2023-02-11T11:09:48.206Z,102105.50
2023-02-11T11:12:40.307Z,102114.25
2023-02-11T11:15:19.854Z,102105.44
2023-02-11T11:17:49.696Z,102107.00
2023-02-11T11:20:24.761Z,102107.06
2023-02-11T11:22:55.895Z,102106.19
2023-02-11T11:25:26.960Z,102102.66
2023-02-11T11:27:58.268Z,102094.84
2023-02-11T11:30:32.616Z,102099.00
2023-02-11T11:33:02.557Z,102103.50
2023-02-11T11:35:32.946Z,102112.09
2023-02-11T11:38:04.167Z,102111.25
2023-02-11T11:40:33.848Z,102112.97
2023-02-11T11:43:22.605Z,102113.84
2023-02-11T11:45:56.546Z,102107.56
2023-02-11T11:48:29.546Z,102103.34
2023-02-11T11:51:00.648Z,102097.91
2023-02-11T11:53:38.306Z,102104.72
2023-02-11T11:56:10.394Z,102113.41
2023-02-11T11:58:38.487Z,102116.66
2023-02-11T12:01:30.616Z,102104.41
2023-02-11T12:04:21.367Z,102115.69
2023-02-11T12:07:03.283Z,102093.81
2023-02-11T12:09:39.045Z,102095.53
2023-02-11T12:12:29.343Z,102092.59
2023-02-11T12:15:09.354Z,102101.31
2023-02-11T12:17:53.632Z,102092.44
2023-02-11T12:20:33.072Z,102090.72
2023-02-11T12:23:23.706Z,102090.50
2023-02-11T12:26:00.444Z,102091.31
2023-02-11T12:28:41.757Z,102085.25
2023-02-11T12:31:26.117Z,102092.88
2023-02-11T12:34:21.002Z,102096.44
2023-02-11T12:37:07.942Z,102092.88
2023-02-11T12:39:43.688Z,102104.06
2023-02-11T12:42:43.513Z,102105.84
2023-02-11T12:45:22.899Z,102098.09
2023-02-11T12:48:03.850Z,102099.69
2023-02-11T12:50:43.720Z,102107.59
2023-02-11T12:53:33.184Z,102112.75
2023-02-11T12:56:07.038Z,102112.56
2023-02-11T12:58:44.857Z,102107.50
2023-02-11T13:01:20.211Z,102116.06
2023-02-11T13:03:50.260Z,102111.00
2023-02-11T13:06:23.754Z,102111.84
2023-02-11T13:08:59.539Z,102112.94
2023-02-11T13:11:30.532Z,102119.81
2023-02-11T13:14:03.366Z,102127.50
2023-02-11T13:16:36.874Z,102130.16
2023-02-11T13:19:22.741Z,102129.16
2023-02-11T13:22:01.823Z,102123.06
2023-02-11T13:24:38.133Z,102119.31
2023-02-11T13:27:14.993Z,102128.03
2023-02-11T13:30:21.392Z,102150.81
2023-02-11T13:33:06.609Z,102140.94
2023-02-11T13:35:37.548Z,102153.06
2023-02-11T13:38:07.756Z,102141.00
2023-02-11T13:40:37.637Z,102146.41
2023-02-11T13:43:07.824Z,102147.09
2023-02-11T13:45:41.322Z,102150.59
2023-02-11T13:48:18.785Z,102160.31
2023-02-11T13:50:50.949Z,102156.63
2023-02-11T13:53:20.131Z,102158.38
2023-02-11T13:55:50.842Z,102162.03
2023-02-11T13:58:39.922Z,102165.31
2023-02-11T14:01:08.770Z,102161.94
2023-02-11T14:03:56.785Z,102156.00
2023-02-11T14:06:47.410Z,102164.31
2023-02-11T14:09:37.877Z,102167.78
2023-02-11T14:12:26.153Z,102161.72
2023-02-11T14:15:04.891Z,102160.00
2023-02-11T14:17:35.569Z,102157.38
2023-02-11T14:20:05.618Z,102171.31
2023-02-11T14:22:48.563Z,102159.13
2023-02-11T14:25:23.621Z,102156.47
2023-02-11T14:27:57.100Z,102169.50
2023-02-11T14:30:44.274Z,102152.00
2023-02-11T14:33:52.139Z,102161.66
2023-02-11T14:36:44.595Z,102161.56
2023-02-11T14:39:23.599Z,102175.53
2023-02-11T14:41:52.061Z,102165.16
2023-02-11T14:44:26.770Z,102174.47
2023-02-11T14:46:56.115Z,102170.31
2023-02-11T14:49:28.274Z,102172.00
2023-02-11T14:52:01.354Z,102177.13
2023-02-11T14:54:31.775Z,102185.78
2023-02-11T14:57:13.550Z,102178.91
2023-02-11T14:59:53.151Z,102188.22
2023-02-11T15:02:22.534Z,102182.94
2023-02-11T15:04:50.898Z,102189.03
2023-02-11T15:07:19.514Z,102195.91
2023-02-11T15:09:52.189Z,102201.22
2023-02-11T15:12:25.015Z,102205.66
2023-02-11T15:14:56.229Z,102206.31
2023-02-11T15:17:28.749Z,102208.84
2023-02-11T15:20:00.931Z,102221.97
2023-02-11T15:22:32.937Z,102214.91
2023-02-11T15:25:10.734Z,102218.28
2023-02-11T15:27:40.606Z,102223.97
2023-02-11T15:30:25.737Z,102233.22
2023-02-11T15:32:58.596Z,102237.72
2023-02-11T15:35:29.026Z,102222.81
2023-02-11T15:37:58.640Z,102227.97
2023-02-11T15:40:32.239Z,102243.59
2023-02-11T15:43:02.768Z,102240.84
2023-02-11T15:45:33.738Z,102240.09
2023-02-11T15:48:09.819Z,102234.03
2023-02-11T15:50:40.879Z,102238.44
2023-02-11T15:53:24.238Z,102232.50
2023-02-11T15:56:00.427Z,102222.72
2023-02-11T15:58:28.692Z,102235.00
2023-02-11T16:00:59.855Z,102238.69
2023-02-11T16:03:32.880Z,102229.25
2023-02-11T16:06:16.828Z,102244.91
2023-02-11T16:08:58.108Z,102257.09
2023-02-11T16:11:32.425Z,102251.13
2023-02-11T16:14:04.128Z,102271.06
2023-02-11T16:16:35.876Z,102262.34
2023-02-11T16:19:06.626Z,102271.00
2023-02-11T16:21:38.999Z,102256.28
2023-02-11T16:24:09.268Z,102249.22
2023-02-11T16:26:40.900Z,102260.53
2023-02-11T16:29:13.905Z,102254.72
2023-02-11T16:31:44.203Z,102264.34
2023-02-11T16:34:17.131Z,102265.78
2023-02-11T16:36:45.690Z,102281.69
2023-02-11T16:39:14.307Z,102280.47
2023-02-11T16:41:44.251Z,102275.19
2023-02-11T16:44:12.291Z,102270.84
2023-02-11T16:46:40.459Z,102275.09
2023-02-11T16:49:12.742Z,102275.13
2023-02-11T16:51:42.438Z,102266.88
2023-02-11T16:54:15.022Z,102277.47
2023-02-11T16:56:45.320Z,102287.72
2023-02-11T16:59:13.535Z,102299.22
2023-02-11T17:01:43.411Z,102302.16
2023-02-11T17:04:17.612Z,102313.31
2023-02-11T17:06:45.848Z,102304.50
2023-02-11T17:09:19.484Z,102304.63
2023-02-11T17:11:49.462Z,102302.78
2023-02-11T17:14:17.760Z,102319.28
2023-02-11T17:16:47.155Z,102334.03
2023-02-11T17:19:17.118Z,102329.94
2023-02-11T17:21:48.246Z,102328.19
2023-02-11T17:24:16.573Z,102337.78
2023-02-11T17:26:48.157Z,102326.31
2023-02-11T17:29:20.164Z,102332.38
2023-02-11T17:31:48.302Z,102342.91
2023-02-11T17:34:17.374Z,102343.66
2023-02-11T17:36:45.334Z,102348.00
2023-02-11T17:39:13.459Z,102347.78
2023-02-11T17:41:44.352Z,102358.16
2023-02-11T17:44:14.061Z,102346.06
2023-02-11T17:46:43.923Z,102360.72
2023-02-11T17:49:15.693Z,102345.00
2023-02-11T17:51:43.651Z,102355.25
2023-02-11T17:54:15.805Z,102348.53
2023-02-11T17:56:43.880Z,102362.44
2023-02-11T17:59:13.782Z,102372.25
2023-02-11T18:01:45.983Z,102366.75
2023-02-11T18:04:17.286Z,102374.72
2023-02-11T18:06:45.847Z,102374.72
2023-02-11T18:09:13.791Z,102373.88
2023-02-11T18:11:42.826Z,102381.59
2023-02-11T18:14:11.662Z,102387.53
2023-02-11T18:16:42.941Z,102386.59
2023-02-11T18:19:14.174Z,102390.72
2023-02-11T18:21:42.555Z,102386.47
2023-02-11T18:24:10.842Z,102396.19
2023-02-11T18:26:38.883Z,102418.00
2023-02-11T18:29:07.238Z,102410.16
2023-02-11T18:31:36.312Z,102423.28
2023-02-11T18:34:07.257Z,102417.09
2023-02-11T18:36:39.884Z,102434.50
2023-02-11T18:39:07.997Z,102426.63
2023-02-11T18:41:36.040Z,102426.63
2023-02-11T18:44:04.865Z,102442.06
2023-02-11T18:46:33.047Z,102446.66
2023-02-11T18:49:00.999Z,102462.47
2023-02-11T18:51:31.871Z,102442.34
2023-02-11T18:54:01.624Z,102453.50
2023-02-11T18:56:29.628Z,102463.22
2023-02-11T18:59:01.066Z,102455.47
2023-02-11T19:01:32.536Z,102461.28
2023-02-11T19:04:03.461Z,102459.91
2023-02-11T19:06:35.090Z,102460.53
2023-02-11T19:09:09.803Z,102473.69
2023-02-11T19:11:50.162Z,102477.22
2023-02-11T19:14:21.783Z,102471.00
2023-02-11T19:16:51.624Z,102481.72
2023-02-11T19:19:23.991Z,102471.91
2023-02-11T19:21:53.817Z,102467.28
2023-02-11T19:24:24.129Z,102486.72
2023-02-11T19:26:53.645Z,102496.38
2023-02-11T19:29:21.618Z,102499.84
2023-02-11T19:31:49.815Z,102498.84
2023-02-11T19:34:20.398Z,102506.91
2023-02-11T19:36:49.411Z,102504.09
2023-02-11T19:39:18.473Z,102494.50
2023-02-11T19:41:51.216Z,102503.19
2023-02-11T19:44:19.429Z,102503.19
2023-02-11T19:46:48.448Z,102498.25
2023-02-11T19:49:22.770Z,102502.56
2023-02-11T19:51:50.788Z,102494.31
2023-02-11T19:54:19.789Z,102494.00
2023-02-11T19:56:50.518Z,102497.03
2023-02-11T19:59:20.353Z,102501.91
2023-02-11T20:01:49.077Z,102502.72
2023-02-11T20:04:18.273Z,102509.69
2023-02-11T20:06:48.101Z,102511.84
2023-02-11T20:09:16.420Z,102521.06
2023-02-11T20:11:44.557Z,102530.66
2023-02-11T20:14:14.728Z,102531.25
2023-02-11T20:16:49.152Z,102534.00
2023-02-11T20:19:19.042Z,102527.03
2023-02-11T20:21:48.600Z,102526.69
2023-02-11T20:24:16.962Z,102533.38
2023-02-11T20:26:48.032Z,102529.06
2023-02-11T20:29:16.442Z,102539.28
2023-02-11T20:31:46.281Z,102533.25
2023-02-11T20:34:14.379Z,102541.75
2023-02-11T20:36:42.764Z,102545.91
2023-02-11T20:39:17.089Z,102549.00
2023-02-11T20:41:45.908Z,102556.91
2023-02-11T20:44:14.584Z,102552.41
2023-02-11T20:46:46.962Z,102556.81
2023-02-11T20:49:16.474Z,102568.00
2023-02-11T20:51:45.061Z,102572.47
2023-02-11T20:54:14.766Z,102580.38
2023-02-11T20:56:44.484Z,102579.47
2023-02-11T20:59:14.794Z,102581.16
2023-02-11T21:01:45.931Z,102582.03
2023-02-11T21:04:16.314Z,102575.03
2023-02-11T21:06:47.154Z,102579.47
2023-02-11T21:09:17.382Z,102586.47
2023-02-11T21:11:45.410Z,102578.59
2023-02-11T21:14:14.092Z,102589.16
2023-02-11T21:16:42.629Z,102590.88
2023-02-11T21:19:12.470Z,102595.34
2023-02-11T21:21:40.546Z,102597.91
2023-02-11T21:24:09.636Z,102601.38
2023-02-11T21:26:38.817Z,102604.03
2023-02-11T21:29:08.337Z,102612.78
2023-02-11T21:31:37.316Z,102616.25
2023-02-11T21:34:06.967Z,102624.94
2023-02-11T21:36:36.369Z,102628.44
2023-02-11T21:39:05.784Z,102631.13
2023-02-11T21:41:33.896Z,102630.22
2023-02-11T21:44:02.157Z,102637.28
2023-02-11T21:46:30.815Z,102638.97
2023-02-11T21:49:00.266Z,102639.09
2023-02-11T21:51:29.881Z,102649.38
2023-02-11T21:54:01.828Z,102648.69
2023-02-11T21:56:31.434Z,102649.53
2023-02-11T21:59:00.447Z,102654.88
2023-02-11T22:01:49.907Z,102652.97
2023-02-11T22:04:55.729Z,102659.16
2023-02-11T22:07:28.057Z,102658.97
2023-02-11T22:09:59.261Z,102662.59
2023-02-11T22:12:27.288Z,102660.13
2023-02-11T22:14:55.234Z,102660.97
2023-02-11T22:17:24.091Z,102676.75
2023-02-11T22:19:52.138Z,102693.22
2023-02-11T22:22:21.233Z,102690.72
2023-02-11T22:24:49.232Z,102694.16
2023-02-11T22:27:20.310Z,102695.97
2023-02-11T22:29:48.308Z,102690.72
2023-02-11T22:32:19.286Z,102700.34
2023-02-11T22:34:47.281Z,102703.94
2023-02-11T22:37:15.360Z,102709.25
2023-02-11T22:39:43.652Z,102710.06
2023-02-11T22:42:13.490Z,102711.72
2023-02-11T22:44:42.972Z,102710.00
2023-02-11T22:47:10.989Z,102710.09
2023-02-11T22:49:41.592Z,102716.91
2023-02-11T22:52:09.582Z,102724.81
2023-02-11T22:54:37.584Z,102727.38
2023-02-11T22:57:05.707Z,102735.25
2023-02-11T22:59:33.758Z,102733.56
2023-02-11T23:02:03.180Z,102730.06
2023-02-11T23:04:31.335Z,102734.47
2023-02-11T23:06:59.207Z,102737.31
2023-02-11T23:09:27.308Z,102732.56
2023-02-11T23:11:55.553Z,102731.97
2023-02-11T23:14:23.647Z,102745.81
2023-02-11T23:16:52.055Z,102757.97
2023-02-11T23:19:21.454Z,102754.09
2023-02-11T23:21:52.509Z,102756.56
2023-02-11T23:24:20.437Z,102747.75
2023-02-11T23:26:48.523Z,102755.72
2023-02-11T23:29:16.456Z,102748.69
2023-02-11T23:31:46.447Z,102756.56
2023-02-11T23:34:17.046Z,102750.38
2023-02-11T23:36:46.351Z,102753.81
2023-02-11T23:39:16.881Z,102754.22
2023-02-11T23:41:45.591Z,102756.69
2023-02-11T23:44:13.593Z,102754.19
2023-02-11T23:46:41.963Z,102758.66
2023-02-11T23:49:10.011Z,102764.78
2023-02-11T23:51:38.057Z,102765.53
2023-02-11T23:54:07.342Z,102764.66
2023-02-11T23:56:36.849Z,102762.03
2023-02-11T23:59:04.748Z,102772.44
